createdAt,value
2022-10-29T00:00:51.608Z,6.05
2022-10-29T00:03:21.898Z,7.20
2022-10-29T00:05:57.777Z,6.43
2022-10-29T00:08:26.636Z,6.13
2022-10-29T00:10:55.065Z,6.70
2022-10-29T00:13:23.738Z,6.20
2022-10-29T00:15:52.165Z,6.70
2022-10-29T00:18:22.010Z,8.15
2022-10-29T00:20:50.433Z,6.40
2022-10-29T00:23:18.891Z,7.03
2022-10-29T00:25:47.315Z,6.45
2022-10-29T00:28:15.812Z,7.50
2022-10-29T00:30:44.610Z,7.00
2022-10-29T00:33:13.164Z,6.95
2022-10-29T00:35:43.019Z,7.18
2022-10-29T00:38:11.487Z,6.75
2022-10-29T00:40:40.186Z,7.28
2022-10-29T00:43:15.273Z,7.03
2022-10-29T00:45:47.711Z,7.32
2022-10-29T00:48:16.187Z,6.88
2022-10-29T00:50:47.442Z,11.30
2022-10-29T00:53:17.163Z,7.07
2022-10-29T00:55:45.631Z,8.55
2022-10-29T00:58:14.255Z,6.68
2022-10-29T01:00:42.852Z,7.88
2022-10-29T01:03:11.612Z,7.75
2022-10-29T01:05:40.506Z,7.32
2022-10-29T01:08:10.609Z,8.13
2022-10-29T01:10:45.778Z,7.88
2022-10-29T01:13:20.743Z,8.15
2022-10-29T01:15:54.075Z,8.20
2022-10-29T01:18:24.708Z,7.88
2022-10-29T01:21:10.794Z,8.38
2022-10-29T01:23:58.920Z,9.05
2022-10-29T01:26:44.933Z,9.45
2022-10-29T01:29:20.695Z,8.93
2022-10-29T01:31:55.119Z,9.18
2022-10-29T01:34:27.184Z,9.23
2022-10-29T01:36:58.019Z,8.55
2022-10-29T01:39:29.213Z,8.90
2022-10-29T01:42:02.736Z,9.53
2022-10-29T01:44:35.636Z,8.40
2022-10-29T01:47:06.241Z,8.80
2022-10-29T01:49:36.595Z,8.90
2022-10-29T01:52:06.662Z,9.80
2022-10-29T01:54:35.233Z,10.13
2022-10-29T01:57:03.713Z,9.80
2022-10-29T01:59:51.487Z,9.00
2022-10-29T02:02:27.212Z,9.67
2022-10-29T02:05:01.311Z,10.53
2022-10-29T02:07:36.888Z,9.83
2022-10-29T02:10:09.025Z,9.47
2022-10-29T02:12:40.619Z,9.33
2022-10-29T02:15:11.104Z,10.07
2022-10-29T02:17:40.989Z,10.17
2022-10-29T02:20:11.022Z,9.80
2022-10-29T02:22:39.498Z,8.77
2022-10-29T02:25:08.926Z,10.87
2022-10-29T02:27:37.447Z,10.17
2022-10-29T02:30:06.413Z,10.30
2022-10-29T02:32:34.913Z,10.33
2022-10-29T02:35:04.729Z,11.43
2022-10-29T02:37:33.258Z,11.50
2022-10-29T02:40:01.721Z,11.40
2022-10-29T02:42:30.167Z,11.93
2022-10-29T02:44:58.574Z,10.70
2022-10-29T02:47:27.549Z,12.33
2022-10-29T02:49:56.113Z,11.97
2022-10-29T02:52:26.006Z,12.13
2022-10-29T02:54:54.437Z,11.53
2022-10-29T02:57:22.899Z,11.63
2022-10-29T02:59:51.362Z,10.87
2022-10-29T03:02:20.064Z,11.77
2022-10-29T03:04:48.686Z,12.13
2022-10-29T03:07:17.164Z,12.60
2022-10-29T03:09:46.965Z,11.60
2022-10-29T03:12:15.422Z,11.07
2022-10-29T03:14:43.843Z,11.93
2022-10-29T03:17:12.593Z,11.77
2022-10-29T03:19:41.033Z,12.63
2022-10-29T03:22:09.718Z,12.80
2022-10-29T03:24:38.124Z,13.20
2022-10-29T03:27:07.965Z,12.70
2022-10-29T03:29:36.376Z,11.37
2022-10-29T03:32:04.866Z,12.63
2022-10-29T03:34:33.321Z,12.73
2022-10-29T03:37:01.777Z,12.27
2022-10-29T03:39:30.200Z,11.70
2022-10-29T03:41:58.604Z,11.60
2022-10-29T03:44:28.458Z,10.87
2022-10-29T03:46:56.882Z,12.00
2022-10-29T03:49:25.364Z,13.30
2022-10-29T03:51:53.815Z,11.10
2022-10-29T03:54:22.397Z,11.40
2022-10-29T03:56:50.829Z,11.83
2022-10-29T03:59:19.281Z,12.13
2022-10-29T04:01:49.205Z,11.80
2022-10-29T04:04:17.714Z,10.90
2022-10-29T04:06:46.205Z,11.20
2022-10-29T04:09:14.675Z,10.70
2022-10-29T04:11:43.082Z,12.30
2022-10-29T04:14:11.758Z,11.23
2022-10-29T04:16:40.218Z,9.80
2022-10-29T04:19:10.069Z,10.50
2022-10-29T04:30:04.024Z,11.33
2022-10-29T04:32:32.567Z,11.27
2022-10-29T04:35:02.366Z,11.23
2022-10-29T04:37:30.844Z,10.57
2022-10-29T04:39:59.243Z,10.37
2022-10-29T04:42:27.716Z,10.30
2022-10-29T04:44:56.184Z,10.73
2022-10-29T04:47:24.646Z,10.47
2022-10-29T04:49:53.076Z,11.10
2022-10-29T04:52:22.910Z,10.47
2022-10-29T04:54:51.327Z,10.90
2022-10-29T04:57:19.855Z,10.70
2022-10-29T04:59:48.281Z,11.27
2022-10-29T05:02:16.702Z,10.43
2022-10-29T05:04:45.186Z,10.67
2022-10-29T05:07:13.696Z,9.43
2022-10-29T05:09:43.568Z,10.17
2022-10-29T05:12:12.045Z,10.27
2022-10-29T05:14:40.466Z,11.60
2022-10-29T05:17:08.922Z,11.20
2022-10-29T05:19:37.378Z,10.23
2022-10-29T05:22:06.081Z,9.03
2022-10-29T05:24:34.516Z,9.70
2022-10-29T05:27:04.380Z,10.67
2022-10-29T05:29:32.797Z,11.43
2022-10-29T05:32:01.271Z,11.23
2022-10-29T05:34:29.729Z,16.50
2022-10-29T05:36:58.217Z,11.30
2022-10-29T05:39:26.624Z,11.50
2022-10-29T05:41:55.095Z,13.73
2022-10-29T05:44:24.966Z,12.63
2022-10-29T05:46:53.397Z,12.90
2022-10-29T05:49:21.849Z,13.10
2022-10-29T05:51:50.316Z,15.27
2022-10-29T05:54:18.775Z,13.60
2022-10-29T05:56:47.207Z,13.67
2022-10-29T05:59:15.649Z,14.03
2022-10-29T06:01:45.558Z,14.00
2022-10-29T06:04:14.102Z,12.80
2022-10-29T06:06:42.627Z,12.60
2022-10-29T06:09:12.358Z,11.63
2022-10-29T06:11:40.810Z,12.30
2022-10-29T06:14:09.366Z,12.33
2022-10-29T06:16:37.847Z,13.07
2022-10-29T06:19:07.679Z,11.90
2022-10-29T06:21:36.570Z,11.83
2022-10-29T06:24:05.081Z,14.23
2022-10-29T06:26:33.800Z,12.60
2022-10-29T06:29:02.414Z,14.00
2022-10-29T06:31:30.850Z,13.47
2022-10-29T06:33:59.309Z,13.33
2022-10-29T06:36:29.164Z,12.73
2022-10-29T06:38:57.642Z,12.70
2022-10-29T06:41:27.298Z,12.67
2022-10-29T06:43:55.748Z,13.33
2022-10-29T06:46:24.178Z,12.73
2022-10-29T06:48:52.626Z,14.43
2022-10-29T06:53:55.798Z,14.87
2022-10-29T06:56:24.231Z,14.20
2022-10-29T06:58:52.702Z,14.43
2022-10-29T07:01:21.324Z,13.37
2022-10-29T07:03:51.012Z,13.53
2022-10-29T07:06:19.456Z,13.87
2022-10-29T07:08:48.537Z,13.13
2022-10-29T07:11:18.797Z,14.03
2022-10-29T07:13:47.282Z,12.83
2022-10-29T07:16:15.728Z,12.60
2022-10-29T07:18:44.200Z,12.73
2022-10-29T07:21:13.914Z,14.50
2022-10-29T07:23:43.899Z,13.73
2022-10-29T07:26:12.371Z,13.67
2022-10-29T07:28:42.347Z,13.33
2022-10-29T07:31:10.770Z,13.07
2022-10-29T07:33:39.253Z,13.63
2022-10-29T07:36:08.518Z,13.43
2022-10-29T07:38:37.087Z,13.57
2022-10-29T07:41:05.520Z,13.23
2022-10-29T07:43:33.977Z,14.03
2022-10-29T07:46:03.842Z,14.23
2022-10-29T07:48:32.332Z,14.53
2022-10-29T07:51:00.941Z,14.20
2022-10-29T07:53:31.417Z,13.83
2022-10-29T07:56:00.259Z,13.87
2022-10-29T07:58:28.897Z,14.83
2022-10-29T08:00:57.478Z,15.83
2022-10-29T08:03:27.358Z,16.47
2022-10-29T08:05:58.740Z,15.47
2022-10-29T08:08:27.309Z,16.60
2022-10-29T08:11:02.342Z,16.87
2022-10-29T08:13:30.851Z,17.60
2022-10-29T08:15:59.282Z,17.37
2022-10-29T08:18:29.170Z,17.73
2022-10-29T08:20:57.589Z,18.10
2022-10-29T08:23:26.140Z,17.45
2022-10-29T08:25:54.642Z,16.48
2022-10-29T08:28:25.739Z,16.42
2022-10-29T08:30:54.570Z,15.75
2022-10-29T08:33:23.049Z,15.30
2022-10-29T08:35:54.678Z,14.93
2022-10-29T08:38:24.112Z,15.05
2022-10-29T08:41:00.442Z,15.25
2022-10-29T08:43:37.827Z,14.02
2022-10-29T08:46:06.547Z,14.88
2022-10-29T08:48:41.662Z,14.63
2022-10-29T08:51:15.466Z,13.32
2022-10-29T08:53:50.355Z,12.55
2022-10-29T08:56:24.997Z,12.80
2022-10-29T08:58:56.174Z,12.63
2022-10-29T09:01:25.371Z,12.75
2022-10-29T09:03:54.135Z,12.65
2022-10-29T09:06:26.063Z,11.48
2022-10-29T09:08:59.438Z,13.45
2022-10-29T09:11:35.731Z,12.88
2022-10-29T09:14:11.425Z,12.35
2022-10-29T09:16:45.623Z,12.48
2022-10-29T09:19:19.612Z,12.20
2022-10-29T09:21:54.565Z,12.38
2022-10-29T09:24:27.717Z,11.73
2022-10-29T09:26:59.223Z,11.93
2022-10-29T09:29:34.818Z,11.60
2022-10-29T09:32:04.342Z,11.63
2022-10-29T09:34:36.169Z,11.05
2022-10-29T09:37:06.799Z,11.55
2022-10-29T09:39:37.184Z,12.07
2022-10-29T09:42:10.890Z,11.05
2022-10-29T09:44:42.245Z,11.38
2022-10-29T09:47:15.913Z,11.10
2022-10-29T09:49:49.090Z,11.63
2022-10-29T09:52:20.297Z,10.35
2022-10-29T09:54:50.254Z,10.63
2022-10-29T09:57:20.724Z,10.85
2022-10-29T09:59:52.017Z,10.27
2022-10-29T10:02:27.313Z,9.80
2022-10-29T10:04:57.500Z,9.15
2022-10-29T10:07:27.612Z,8.88
2022-10-29T10:09:57.071Z,8.40
2022-10-29T10:12:27.161Z,8.63
2022-10-29T10:15:06.276Z,8.13
2022-10-29T10:17:49.581Z,8.13
2022-10-29T10:20:28.369Z,8.00
2022-10-29T10:22:58.549Z,8.02
2022-10-29T10:25:35.919Z,8.13
2022-10-29T10:28:18.380Z,7.10
2022-10-29T10:30:47.166Z,6.78
2022-10-29T10:33:25.870Z,7.05
2022-10-29T10:35:54.717Z,6.97
2022-10-29T10:38:24.558Z,6.57
2022-10-29T10:40:56.910Z,7.10
2022-10-29T10:43:26.723Z,6.97
2022-10-29T10:45:56.316Z,6.72
2022-10-29T10:48:28.530Z,7.20
2022-10-29T10:51:20.394Z,6.88
2022-10-29T10:53:51.130Z,5.85
2022-10-29T10:56:20.992Z,7.50
2022-10-29T10:58:52.459Z,6.63
2022-10-29T11:01:23.737Z,6.53
2022-10-29T11:03:56.696Z,6.30
2022-10-29T11:06:27.120Z,6.30
2022-10-29T11:09:00.286Z,7.15
2022-10-29T11:11:30.066Z,6.03
2022-10-29T11:14:03.096Z,6.25
2022-10-29T11:16:35.443Z,6.55
2022-10-29T11:19:07.855Z,6.88
2022-10-29T11:21:39.049Z,6.75
2022-10-29T11:24:11.889Z,6.57
2022-10-29T11:26:42.620Z,6.68
2022-10-29T11:29:17.265Z,6.50
2022-10-29T11:31:49.121Z,6.50
2022-10-29T11:34:19.435Z,7.13
2022-10-29T11:36:50.045Z,5.95
2022-10-29T11:39:22.445Z,6.60
2022-10-29T11:41:56.009Z,6.80
2022-10-29T11:44:24.868Z,7.22
2022-10-29T11:46:58.804Z,6.60
2022-10-29T11:49:35.339Z,7.20
2022-10-29T11:52:07.672Z,6.68
2022-10-29T11:54:44.494Z,7.05
2022-10-29T11:57:17.058Z,6.43
2022-10-29T11:59:56.213Z,6.40
2022-10-29T12:02:31.706Z,6.70
2022-10-29T12:05:02.775Z,6.53
2022-10-29T12:07:36.859Z,6.38
2022-10-29T12:10:23.262Z,6.80
2022-10-29T12:12:55.511Z,6.80
2022-10-29T12:15:25.688Z,6.00
2022-10-29T12:18:01.451Z,6.63
2022-10-29T12:20:35.375Z,6.38
2022-10-29T12:23:14.569Z,6.70
2022-10-29T12:25:48.017Z,6.30
2022-10-29T12:28:20.731Z,5.78
2022-10-29T12:30:56.289Z,6.45
2022-10-29T12:33:26.616Z,6.63
2022-10-29T12:35:59.632Z,5.88
2022-10-29T12:38:37.134Z,5.95
2022-10-29T12:41:07.287Z,5.78
2022-10-29T12:43:37.989Z,5.75
2022-10-29T12:46:25.791Z,5.45
2022-10-29T12:49:01.621Z,5.75
2022-10-29T12:51:34.545Z,5.57
2022-10-29T12:54:14.784Z,5.72
2022-10-29T12:56:47.740Z,5.35
2022-10-29T12:59:33.657Z,5.40
2022-10-29T13:02:17.093Z,5.38
2022-10-29T13:05:12.174Z,5.55
2022-10-29T13:08:02.006Z,5.85
2022-10-29T13:10:49.133Z,5.57
2022-10-29T13:13:22.612Z,5.60
2022-10-29T13:15:59.227Z,5.25
2022-10-29T13:18:29.553Z,5.20
2022-10-29T13:20:58.039Z,5.03
2022-10-29T13:23:37.908Z,5.00
2022-10-29T13:26:07.116Z,5.22
2022-10-29T13:28:50.004Z,4.72
2022-10-29T13:31:36.923Z,4.53
2022-10-29T13:34:05.391Z,4.15
2022-10-29T13:36:40.230Z,4.63
2022-10-29T13:39:20.978Z,4.38
2022-10-29T13:41:53.063Z,4.88
2022-10-29T13:44:22.552Z,4.88
2022-10-29T13:46:52.931Z,5.50
2022-10-29T13:49:24.393Z,4.93
2022-10-29T13:51:55.369Z,4.70
2022-10-29T13:54:31.328Z,4.65
2022-10-29T13:57:01.241Z,4.20
2022-10-29T13:59:36.956Z,4.70
2022-10-29T14:02:14.922Z,4.95
2022-10-29T14:04:44.556Z,4.53
2022-10-29T14:07:15.999Z,4.32
2022-10-29T14:09:48.072Z,4.65
2022-10-29T14:12:19.849Z,4.60
2022-10-29T14:14:52.911Z,4.50
2022-10-29T14:17:21.538Z,4.45
2022-10-29T14:19:50.993Z,4.47
2022-10-29T14:22:34.306Z,4.28
2022-10-29T14:25:04.656Z,4.38
2022-10-29T14:27:33.129Z,4.40
2022-10-29T14:30:14.679Z,4.15
2022-10-29T14:32:45.435Z,4.88
2022-10-29T14:35:16.776Z,3.95
2022-10-29T14:37:46.014Z,3.75
2022-10-29T14:40:18.976Z,4.63
2022-10-29T14:42:49.740Z,4.20
2022-10-29T14:48:03.473Z,4.38
2022-10-29T14:50:32.815Z,4.25
2022-10-29T14:53:02.695Z,4.18
2022-10-29T14:55:33.458Z,4.35
2022-10-29T14:58:04.863Z,4.28
2022-10-29T15:00:35.829Z,4.35
2022-10-29T15:03:05.269Z,4.78
2022-10-29T15:05:34.943Z,4.20
2022-10-29T15:08:07.069Z,4.45
2022-10-29T15:10:45.978Z,3.97
2022-10-29T15:13:24.764Z,4.35
2022-10-29T15:15:54.716Z,4.70
2022-10-29T15:18:23.786Z,5.00
2022-10-29T15:20:52.626Z,4.90
2022-10-29T15:23:24.319Z,4.28
2022-10-29T15:25:55.171Z,4.65
2022-10-29T15:28:25.853Z,4.53
2022-10-29T15:30:54.357Z,4.32
2022-10-29T15:33:24.115Z,4.60
2022-10-29T15:35:54.090Z,4.40
2022-10-29T15:38:40.764Z,4.68
2022-10-29T15:41:32.847Z,4.90
2022-10-29T15:44:01.410Z,4.85
2022-10-29T15:46:30.778Z,4.65
2022-10-29T15:48:59.491Z,4.88
2022-10-29T15:51:28.864Z,5.35
2022-10-29T15:53:58.145Z,5.38
2022-10-29T15:56:28.006Z,5.70
2022-10-29T15:58:59.050Z,6.15
2022-10-29T16:01:27.613Z,7.00
2022-10-29T16:03:56.364Z,7.47
2022-10-29T16:06:25.093Z,7.20
2022-10-29T16:08:55.766Z,7.15
2022-10-29T16:11:24.656Z,6.65
2022-10-29T16:13:55.667Z,7.20
2022-10-29T16:16:24.949Z,7.30
2022-10-29T16:18:54.604Z,7.57
2022-10-29T16:21:24.088Z,7.40
2022-10-29T16:23:52.968Z,7.70
2022-10-29T16:26:22.550Z,7.90
2022-10-29T16:28:52.796Z,7.82
2022-10-29T16:31:23.640Z,7.28
2022-10-29T16:33:52.903Z,7.15
2022-10-29T16:36:21.729Z,7.90
2022-10-29T16:38:50.453Z,7.75
2022-10-29T16:41:20.331Z,7.10
2022-10-29T16:43:49.125Z,7.13
2022-10-29T16:46:17.611Z,6.70
2022-10-29T16:48:47.488Z,6.15
2022-10-29T16:51:15.952Z,6.70
2022-10-29T16:53:44.444Z,6.22
2022-10-29T16:56:12.854Z,7.03
2022-10-29T16:58:42.062Z,7.70
2022-10-29T17:01:11.547Z,9.20
2022-10-29T17:03:40.163Z,8.02
2022-10-29T17:06:28.614Z,11.52
2022-10-29T17:08:58.646Z,9.13
2022-10-29T17:11:27.082Z,7.47
2022-10-29T17:13:55.762Z,11.15
2022-10-29T17:16:24.448Z,8.57
2022-10-29T17:18:52.934Z,7.10
2022-10-29T17:21:21.601Z,6.68
2022-10-29T17:23:50.097Z,6.85
2022-10-29T17:26:19.953Z,6.95
2022-10-29T17:28:48.477Z,7.85
2022-10-29T17:31:16.977Z,6.32
2022-10-29T17:33:45.434Z,7.10
2022-10-29T17:36:14.759Z,7.30
2022-10-29T17:38:43.881Z,6.60
2022-10-29T17:41:12.417Z,7.25
2022-10-29T17:43:42.274Z,8.90
2022-10-29T17:46:11.087Z,7.50
2022-10-29T17:48:40.004Z,7.22
2022-10-29T17:51:08.821Z,7.25
2022-10-29T17:53:39.312Z,7.28
2022-10-29T17:56:08.136Z,7.30
2022-10-29T17:58:36.662Z,7.50
2022-10-29T18:01:07.817Z,7.47
2022-10-29T18:03:36.419Z,6.97
2022-10-29T18:06:05.694Z,7.40
2022-10-29T18:08:34.458Z,8.93
2022-10-29T18:11:03.962Z,7.15
2022-10-29T18:13:33.171Z,6.95
2022-10-29T18:16:02.561Z,7.00
2022-10-29T18:18:47.946Z,7.53
2022-10-29T18:21:24.615Z,7.38
2022-10-29T18:23:53.597Z,7.35
2022-10-29T18:26:23.786Z,7.72
2022-10-29T18:28:52.293Z,7.55
2022-10-29T18:31:20.835Z,7.80
2022-10-29T18:33:50.794Z,8.90
2022-10-29T18:36:19.265Z,8.40
2022-10-29T18:38:51.515Z,8.80
2022-10-29T18:41:20.010Z,8.10
2022-10-29T18:43:48.522Z,7.45
2022-10-29T18:46:17.331Z,7.78
2022-10-29T18:48:47.153Z,8.43
2022-10-29T18:51:18.242Z,11.77
2022-10-29T18:53:46.890Z,8.50
2022-10-29T18:56:20.395Z,8.32
2022-10-29T18:58:59.111Z,9.43
2022-10-29T19:01:28.909Z,10.48
2022-10-29T19:03:59.152Z,7.55
2022-10-29T19:06:39.663Z,7.38
2022-10-29T19:09:14.946Z,8.52
2022-10-29T19:11:44.381Z,8.77
2022-10-29T19:14:16.143Z,8.05
2022-10-29T19:16:55.716Z,8.48
2022-10-29T19:19:24.514Z,7.85
2022-10-29T19:21:57.764Z,7.50
2022-10-29T19:24:37.296Z,7.32
2022-10-29T19:27:09.503Z,7.63
2022-10-29T19:29:39.275Z,7.68
2022-10-29T19:32:09.734Z,13.02
2022-10-29T19:37:14.039Z,7.70
2022-10-29T19:39:42.573Z,7.80
2022-10-29T19:42:11.065Z,7.45
2022-10-29T19:44:39.585Z,7.25
2022-10-29T19:47:08.025Z,7.50
2022-10-29T19:49:36.526Z,7.40
2022-10-29T19:52:05.012Z,8.55
2022-10-29T19:54:34.882Z,9.53
2022-10-29T19:57:04.183Z,8.38
2022-10-29T19:59:36.325Z,7.30
2022-10-29T20:02:05.815Z,7.43
2022-10-29T20:04:37.956Z,7.45
2022-10-29T20:07:06.752Z,7.95
2022-10-29T20:09:37.014Z,7.28
2022-10-29T20:12:05.619Z,8.93
2022-10-29T20:14:35.696Z,7.97
2022-10-29T20:17:04.831Z,8.40
2022-10-29T20:19:33.304Z,8.00
2022-10-29T20:22:02.210Z,7.03
2022-10-29T20:24:31.305Z,7.73
2022-10-29T20:27:01.234Z,8.53
2022-10-29T20:29:29.711Z,8.20
2022-10-29T20:31:58.178Z,7.80
2022-10-29T20:34:26.671Z,7.47
2022-10-29T20:36:55.471Z,7.70
2022-10-29T20:39:24.508Z,7.77
2022-10-29T20:41:54.034Z,8.03
2022-10-29T20:44:23.906Z,7.60
2022-10-29T20:46:52.340Z,8.10
2022-10-29T20:49:20.980Z,7.80
2022-10-29T20:51:49.566Z,7.37
2022-10-29T20:54:18.072Z,8.00
2022-10-29T20:56:46.506Z,7.63
2022-10-29T20:59:15.004Z,7.50
2022-10-29T21:01:45.010Z,7.63
2022-10-29T21:04:14.619Z,6.87
2022-10-29T21:06:43.034Z,7.40
2022-10-29T21:09:11.538Z,7.20
2022-10-29T21:11:39.996Z,6.57
2022-10-29T21:14:08.500Z,6.65
2022-10-29T21:16:36.935Z,6.63
2022-10-29T21:19:07.284Z,6.30
2022-10-29T21:21:35.728Z,6.90
2022-10-29T21:24:04.235Z,6.30
2022-10-29T21:26:33.860Z,6.18
2022-10-29T21:29:02.480Z,7.05
2022-10-29T21:31:30.982Z,6.00
2022-10-29T21:33:59.984Z,6.65
2022-10-29T21:36:29.941Z,6.43
2022-10-29T21:38:58.558Z,6.00
2022-10-29T21:41:27.083Z,6.60
2022-10-29T21:43:55.687Z,5.85
2022-10-29T21:46:24.124Z,6.05
2022-10-29T21:48:52.597Z,6.55
2022-10-29T21:51:21.061Z,6.00
2022-10-29T21:53:51.047Z,6.55
2022-10-29T21:56:19.632Z,6.70
2022-10-29T21:58:48.210Z,6.55
2022-10-29T22:01:17.425Z,7.22
2022-10-29T22:03:47.247Z,7.38
2022-10-29T22:06:17.064Z,6.53
2022-10-29T22:08:45.867Z,6.88
2022-10-29T22:11:16.497Z,6.95
2022-10-29T22:13:45.178Z,6.30
2022-10-29T22:16:14.078Z,7.43
2022-10-29T22:18:42.828Z,6.03
2022-10-29T22:21:13.250Z,6.20
2022-10-29T22:23:45.865Z,5.63
2022-10-29T22:26:16.420Z,6.20
2022-10-29T22:28:45.284Z,5.65
2022-10-29T22:31:14.649Z,5.30
2022-10-29T22:33:43.448Z,6.53
2022-10-29T22:36:12.659Z,5.93
2022-10-29T22:38:41.162Z,5.95
2022-10-29T22:41:10.228Z,5.85
2022-10-29T22:43:40.242Z,6.03
2022-10-29T22:46:09.594Z,6.53
2022-10-29T22:48:38.127Z,6.03
2022-10-29T22:51:07.857Z,5.90
2022-10-29T22:53:36.459Z,5.95
2022-10-29T22:56:05.469Z,6.05
2022-10-29T22:58:34.006Z,5.57
2022-10-29T23:01:04.405Z,6.40
2022-10-29T23:03:33.102Z,5.88
2022-10-29T23:06:02.445Z,5.97
2022-10-29T23:08:31.333Z,6.00
2022-10-29T23:11:00.248Z,5.88
2022-10-29T23:13:28.724Z,5.82
2022-10-29T23:15:57.206Z,5.40
2022-10-29T23:18:27.105Z,5.75
2022-10-29T23:21:01.926Z,5.90
2022-10-29T23:23:30.864Z,5.55
2022-10-29T23:26:02.295Z,5.95
2022-10-29T23:28:30.832Z,6.00
2022-10-29T23:30:59.950Z,5.40
2022-10-29T23:33:29.978Z,5.70
2022-10-29T23:35:58.470Z,5.40
2022-10-29T23:38:26.883Z,5.50
2022-10-29T23:40:55.373Z,5.72
2022-10-29T23:43:23.852Z,5.85
2022-10-29T23:45:52.336Z,5.65
2022-10-29T23:48:20.857Z,5.55
2022-10-29T23:50:50.692Z,5.80
2022-10-29T23:53:19.165Z,5.60
2022-10-29T23:55:47.850Z,5.68
2022-10-29T23:58:16.436Z,6.57
